sensor_id;sensor_type;location;lat;lon;timestamp;P1;durP1;ratioP1;P2;durP2;ratioP2
23714;SDS011;12036;50.858;4.472;2023-11-21T00:01:58;42.65;;;15.70;;
23714;SDS011;12036;50.858;4.472;2023-11-21T00:04:24;34.45;;;14.38;;
23714;SDS011;12036;50.858;4.472;2023-11-21T00:06:50;31.75;;;14.35;;
23714;SDS011;12036;50.858;4.472;2023-11-21T00:09:16;40.38;;;14.40;;
23714;SDS011;12036;50.858;4.472;2023-11-21T00:11:42;40.65;;;15.32;;
23714;SDS011;12036;50.858;4.472;2023-11-21T00:14:09;40.88;;;14.05;;
23714;SDS011;12036;50.858;4.472;2023-11-21T00:16:35;34.72;;;14.25;;
23714;SDS011;12036;50.858;4.472;2023-11-21T00:19:01;34.55;;;13.70;;
23714;SDS011;12036;50.858;4.472;2023-11-21T00:21:27;30.73;;;14.00;;
23714;SDS011;12036;50.858;4.472;2023-11-21T00:23:52;38.13;;;15.07;;
23714;SDS011;12036;50.858;4.472;2023-11-21T00:26:18;35.80;;;14.25;;
23714;SDS011;12036;50.858;4.472;2023-11-21T00:28:44;30.88;;;14.30;;
23714;SDS011;12036;50.858;4.472;2023-11-21T00:31:10;39.35;;;14.15;;
23714;SDS011;12036;50.858;4.472;2023-11-21T00:33:36;33.42;;;14.57;;
23714;SDS011;12036;50.858;4.472;2023-11-21T00:36:02;37.35;;;14.27;;
23714;SDS011;12036;50.858;4.472;2023-11-21T00:38:27;35.72;;;14.98;;
23714;SDS011;12036;50.858;4.472;2023-11-21T00:40:53;36.05;;;14.48;;
23714;SDS011;12036;50.858;4.472;2023-11-21T00:43:22;37.58;;;15.90;;
23714;SDS011;12036;50.858;4.472;2023-11-21T00:45:48;41.10;;;15.40;;
23714;SDS011;12036;50.858;4.472;2023-11-21T00:48:16;38.83;;;15.80;;
23714;SDS011;12036;50.858;4.472;2023-11-21T00:50:43;40.25;;;16.23;;
23714;SDS011;12036;50.858;4.472;2023-11-21T00:53:09;39.65;;;16.35;;
23714;SDS011;12036;50.858;4.472;2023-11-21T00:55:35;39.40;;;14.93;;
23714;SDS011;12036;50.858;4.472;2023-11-21T00:58:01;37.60;;;14.73;;
23714;SDS011;12036;50.858;4.472;2023-11-21T01:00:29;40.80;;;15.48;;
23714;SDS011;12036;50.858;4.472;2023-11-21T01:02:54;37.67;;;14.95;;
23714;SDS011;12036;50.858;4.472;2023-11-21T01:05:20;45.10;;;14.88;;
23714;SDS011;12036;50.858;4.472;2023-11-21T01:07:46;37.72;;;15.50;;
23714;SDS011;12036;50.858;4.472;2023-11-21T01:10:12;39.38;;;15.52;;
23714;SDS011;12036;50.858;4.472;2023-11-21T01:12:38;33.25;;;15.35;;
23714;SDS011;12036;50.858;4.472;2023-11-21T01:15:04;33.65;;;15.15;;
23714;SDS011;12036;50.858;4.472;2023-11-21T01:17:34;40.30;;;15.38;;
23714;SDS011;12036;50.858;4.472;2023-11-21T01:20:03;40.38;;;14.38;;
23714;SDS011;12036;50.858;4.472;2023-11-21T01:22:36;41.72;;;15.43;;
23714;SDS011;12036;50.858;4.472;2023-11-21T01:25:02;43.85;;;17.50;;
23714;SDS011;12036;50.858;4.472;2023-11-21T01:27:33;47.53;;;16.98;;
23714;SDS011;12036;50.858;4.472;2023-11-21T01:29:59;47.63;;;16.73;;
23714;SDS011;12036;50.858;4.472;2023-11-21T01:32:26;46.63;;;16.83;;
23714;SDS011;12036;50.858;4.472;2023-11-21T01:34:51;45.58;;;17.48;;
23714;SDS011;12036;50.858;4.472;2023-11-21T01:37:17;47.50;;;18.00;;
23714;SDS011;12036;50.858;4.472;2023-11-21T01:39:43;46.38;;;18.42;;
23714;SDS011;12036;50.858;4.472;2023-11-21T01:42:09;40.60;;;16.95;;
23714;SDS011;12036;50.858;4.472;2023-11-21T01:44:36;40.95;;;17.02;;
23714;SDS011;12036;50.858;4.472;2023-11-21T01:47:01;45.67;;;17.10;;
23714;SDS011;12036;50.858;4.472;2023-11-21T01:49:30;42.78;;;17.77;;
23714;SDS011;12036;50.858;4.472;2023-11-21T01:51:58;40.20;;;17.35;;
23714;SDS011;12036;50.858;4.472;2023-11-21T01:54:24;41.63;;;16.77;;
23714;SDS011;12036;50.858;4.472;2023-11-21T01:56:50;33.75;;;15.80;;
23714;SDS011;12036;50.858;4.472;2023-11-21T01:59:20;41.30;;;17.02;;
23714;SDS011;12036;50.858;4.472;2023-11-21T02:01:49;39.35;;;16.45;;
23714;SDS011;12036;50.858;4.472;2023-11-21T02:04:15;37.53;;;16.58;;
23714;SDS011;12036;50.858;4.472;2023-11-21T02:06:41;36.20;;;16.10;;
23714;SDS011;12036;50.858;4.472;2023-11-21T02:09:07;41.92;;;16.35;;
23714;SDS011;12036;50.858;4.472;2023-11-21T02:11:34;34.13;;;16.42;;
23714;SDS011;12036;50.858;4.472;2023-11-21T02:14:00;38.45;;;16.75;;
23714;SDS011;12036;50.858;4.472;2023-11-21T02:16:26;42.00;;;16.00;;
23714;SDS011;12036;50.858;4.472;2023-11-21T02:18:52;40.20;;;17.20;;
23714;SDS011;12036;50.858;4.472;2023-11-21T02:21:18;38.20;;;16.15;;
23714;SDS011;12036;50.858;4.472;2023-11-21T02:23:44;38.75;;;15.65;;
23714;SDS011;12036;50.858;4.472;2023-11-21T02:26:12;38.33;;;16.40;;
23714;SDS011;12036;50.858;4.472;2023-11-21T02:28:38;35.95;;;16.85;;
23714;SDS011;12036;50.858;4.472;2023-11-21T02:31:05;37.88;;;16.45;;
23714;SDS011;12036;50.858;4.472;2023-11-21T02:33:32;33.50;;;15.48;;
23714;SDS011;12036;50.858;4.472;2023-11-21T02:35:59;31.58;;;14.57;;
23714;SDS011;12036;50.858;4.472;2023-11-21T02:38:28;37.28;;;15.57;;
23714;SDS011;12036;50.858;4.472;2023-11-21T02:40:53;35.47;;;15.65;;
23714;SDS011;12036;50.858;4.472;2023-11-21T02:43:19;34.55;;;14.73;;
23714;SDS011;12036;50.858;4.472;2023-11-21T02:45:45;31.08;;;13.75;;
23714;SDS011;12036;50.858;4.472;2023-11-21T02:48:10;34.15;;;13.98;;
23714;SDS011;12036;50.858;4.472;2023-11-21T02:50:36;34.50;;;15.05;;
23714;SDS011;12036;50.858;4.472;2023-11-21T02:53:02;30.90;;;14.38;;
23714;SDS011;12036;50.858;4.472;2023-11-21T02:55:30;29.05;;;13.55;;
23714;SDS011;12036;50.858;4.472;2023-11-21T02:57:59;30.65;;;13.55;;
23714;SDS011;12036;50.858;4.472;2023-11-21T03:00:26;33.20;;;13.38;;
23714;SDS011;12036;50.858;4.472;2023-11-21T03:02:53;31.60;;;13.15;;
23714;SDS011;12036;50.858;4.472;2023-11-21T03:05:20;32.90;;;13.02;;
23714;SDS011;12036;50.858;4.472;2023-11-21T03:07:46;28.67;;;13.05;;
23714;SDS011;12036;50.858;4.472;2023-11-21T03:10:12;27.75;;;12.00;;
23714;SDS011;12036;50.858;4.472;2023-11-21T03:12:38;33.58;;;13.05;;
23714;SDS011;12036;50.858;4.472;2023-11-21T03:15:07;27.42;;;11.70;;
23714;SDS011;12036;50.858;4.472;2023-11-21T03:17:36;34.72;;;12.75;;
23714;SDS011;12036;50.858;4.472;2023-11-21T03:20:02;29.27;;;12.55;;
23714;SDS011;12036;50.858;4.472;2023-11-21T03:22:29;28.58;;;11.55;;
23714;SDS011;12036;50.858;4.472;2023-11-21T03:24:54;30.27;;;13.32;;
23714;SDS011;12036;50.858;4.472;2023-11-21T03:27:21;26.80;;;12.50;;
23714;SDS011;12036;50.858;4.472;2023-11-21T03:29:47;25.73;;;10.90;;
23714;SDS011;12036;50.858;4.472;2023-11-21T03:32:14;26.42;;;11.00;;
23714;SDS011;12036;50.858;4.472;2023-11-21T03:37:38;27.23;;;11.40;;
23714;SDS011;12036;50.858;4.472;2023-11-21T03:40:06;29.42;;;10.95;;
23714;SDS011;12036;50.858;4.472;2023-11-21T03:42:33;18.63;;;10.48;;
23714;SDS011;12036;50.858;4.472;2023-11-21T03:44:59;26.30;;;12.18;;
23714;SDS011;12036;50.858;4.472;2023-11-21T03:47:26;25.98;;;11.65;;
23714;SDS011;12036;50.858;4.472;2023-11-21T03:49:53;23.70;;;11.02;;
23714;SDS011;12036;50.858;4.472;2023-11-21T03:52:18;24.58;;;11.07;;
23714;SDS011;12036;50.858;4.472;2023-11-21T03:54:44;21.08;;;10.20;;
23714;SDS011;12036;50.858;4.472;2023-11-21T03:57:10;26.83;;;10.50;;
23714;SDS011;12036;50.858;4.472;2023-11-21T03:59:40;27.85;;;11.07;;
23714;SDS011;12036;50.858;4.472;2023-11-21T04:02:07;27.13;;;11.13;;
23714;SDS011;12036;50.858;4.472;2023-11-21T04:04:33;18.95;;;10.23;;
23714;SDS011;12036;50.858;4.472;2023-11-21T04:06:59;34.35;;;10.48;;
23714;SDS011;12036;50.858;4.472;2023-11-21T04:09:25;20.98;;;10.27;;
23714;SDS011;12036;50.858;4.472;2023-11-21T04:11:51;19.15;;;10.07;;
23714;SDS011;12036;50.858;4.472;2023-11-21T04:14:17;23.05;;;10.68;;
23714;SDS011;12036;50.858;4.472;2023-11-21T04:16:43;21.17;;;10.70;;
23714;SDS011;12036;50.858;4.472;2023-11-21T04:19:09;19.98;;;9.90;;
23714;SDS011;12036;50.858;4.472;2023-11-21T04:21:35;18.50;;;10.13;;
23714;SDS011;12036;50.858;4.472;2023-11-21T04:24:02;24.55;;;11.02;;
23714;SDS011;12036;50.858;4.472;2023-11-21T04:26:27;28.80;;;10.65;;
23714;SDS011;12036;50.858;4.472;2023-11-21T04:28:53;27.00;;;10.45;;
23714;SDS011;12036;50.858;4.472;2023-11-21T04:31:18;20.70;;;10.10;;
23714;SDS011;12036;50.858;4.472;2023-11-21T04:33:44;27.95;;;11.52;;
23714;SDS011;12036;50.858;4.472;2023-11-21T04:36:10;27.42;;;10.45;;
23714;SDS011;12036;50.858;4.472;2023-11-21T04:38:36;27.52;;;11.30;;
23714;SDS011;12036;50.858;4.472;2023-11-21T04:41:01;28.20;;;11.68;;
23714;SDS011;12036;50.858;4.472;2023-11-21T04:43:27;23.35;;;10.73;;
23714;SDS011;12036;50.858;4.472;2023-11-21T04:45:53;25.52;;;11.90;;
23714;SDS011;12036;50.858;4.472;2023-11-21T04:48:19;24.83;;;11.85;;
23714;SDS011;12036;50.858;4.472;2023-11-21T04:50:45;34.35;;;11.80;;
23714;SDS011;12036;50.858;4.472;2023-11-21T04:53:11;33.88;;;11.88;;
23714;SDS011;12036;50.858;4.472;2023-11-21T04:55:39;28.30;;;11.95;;
23714;SDS011;12036;50.858;4.472;2023-11-21T04:58:05;23.88;;;11.85;;
23714;SDS011;12036;50.858;4.472;2023-11-21T05:00:31;32.70;;;14.40;;
23714;SDS011;12036;50.858;4.472;2023-11-21T05:02:57;31.30;;;14.90;;
23714;SDS011;12036;50.858;4.472;2023-11-21T05:05:23;31.50;;;13.35;;
23714;SDS011;12036;50.858;4.472;2023-11-21T05:07:49;31.73;;;14.43;;
23714;SDS011;12036;50.858;4.472;2023-11-21T05:10:14;37.60;;;14.25;;
23714;SDS011;12036;50.858;4.472;2023-11-21T05:12:43;28.75;;;13.68;;
23714;SDS011;12036;50.858;4.472;2023-11-21T05:15:09;25.02;;;14.13;;
23714;SDS011;12036;50.858;4.472;2023-11-21T05:17:39;34.05;;;15.07;;
23714;SDS011;12036;50.858;4.472;2023-11-21T05:20:09;26.48;;;13.48;;
23714;SDS011;12036;50.858;4.472;2023-11-21T05:22:36;24.60;;;13.60;;
23714;SDS011;12036;50.858;4.472;2023-11-21T05:25:02;34.35;;;14.73;;
23714;SDS011;12036;50.858;4.472;2023-11-21T05:27:29;28.15;;;14.48;;
23714;SDS011;12036;50.858;4.472;2023-11-21T05:29:58;31.60;;;14.88;;
23714;SDS011;12036;50.858;4.472;2023-11-21T05:32:24;35.47;;;15.75;;
23714;SDS011;12036;50.858;4.472;2023-11-21T05:34:50;31.42;;;15.38;;
23714;SDS011;12036;50.858;4.472;2023-11-21T05:37:16;31.08;;;15.43;;
23714;SDS011;12036;50.858;4.472;2023-11-21T05:39:42;40.13;;;16.73;;
23714;SDS011;12036;50.858;4.472;2023-11-21T05:42:08;34.80;;;14.60;;
23714;SDS011;12036;50.858;4.472;2023-11-21T05:44:35;42.95;;;16.23;;
23714;SDS011;12036;50.858;4.472;2023-11-21T05:47:02;32.83;;;15.00;;
23714;SDS011;12036;50.858;4.472;2023-11-21T05:49:28;29.38;;;14.55;;
23714;SDS011;12036;50.858;4.472;2023-11-21T05:51:55;28.73;;;14.75;;
23714;SDS011;12036;50.858;4.472;2023-11-21T05:54:21;30.40;;;14.85;;
23714;SDS011;12036;50.858;4.472;2023-11-21T05:56:48;36.58;;;16.25;;
23714;SDS011;12036;50.858;4.472;2023-11-21T05:59:14;39.92;;;15.68;;
23714;SDS011;12036;50.858;4.472;2023-11-21T06:01:40;29.50;;;15.15;;
23714;SDS011;12036;50.858;4.472;2023-11-21T06:04:06;37.67;;;16.73;;
23714;SDS011;12036;50.858;4.472;2023-11-21T06:06:33;35.90;;;14.15;;
23714;SDS011;12036;50.858;4.472;2023-11-21T06:08:59;39.15;;;15.90;;
23714;SDS011;12036;50.858;4.472;2023-11-21T06:11:25;34.80;;;16.10;;
23714;SDS011;12036;50.858;4.472;2023-11-21T06:13:50;38.88;;;16.83;;
23714;SDS011;12036;50.858;4.472;2023-11-21T06:16:18;35.30;;;17.55;;
23714;SDS011;12036;50.858;4.472;2023-11-21T06:18:45;31.88;;;15.60;;
23714;SDS011;12036;50.858;4.472;2023-11-21T06:21:11;32.03;;;15.02;;
23714;SDS011;12036;50.858;4.472;2023-11-21T06:23:37;35.03;;;14.82;;
23714;SDS011;12036;50.858;4.472;2023-11-21T06:26:03;34.92;;;16.10;;
23714;SDS011;12036;50.858;4.472;2023-11-21T06:28:29;35.92;;;16.35;;
23714;SDS011;12036;50.858;4.472;2023-11-21T06:30:55;32.38;;;16.38;;
23714;SDS011;12036;50.858;4.472;2023-11-21T06:33:23;29.95;;;14.93;;
23714;SDS011;12036;50.858;4.472;2023-11-21T06:35:52;36.25;;;15.63;;
23714;SDS011;12036;50.858;4.472;2023-11-21T06:38:18;27.88;;;16.30;;
23714;SDS011;12036;50.858;4.472;2023-11-21T06:40:44;31.23;;;15.98;;
23714;SDS011;12036;50.858;4.472;2023-11-21T06:43:10;31.98;;;15.70;;
23714;SDS011;12036;50.858;4.472;2023-11-21T06:45:36;32.42;;;16.20;;
23714;SDS011;12036;50.858;4.472;2023-11-21T06:48:02;29.77;;;14.27;;
23714;SDS011;12036;50.858;4.472;2023-11-21T06:50:27;30.00;;;16.10;;
23714;SDS011;12036;50.858;4.472;2023-11-21T06:52:53;30.65;;;15.35;;
23714;SDS011;12036;50.858;4.472;2023-11-21T06:55:18;35.78;;;15.73;;
23714;SDS011;12036;50.858;4.472;2023-11-21T06:57:44;26.00;;;14.50;;
23714;SDS011;12036;50.858;4.472;2023-11-21T07:00:11;30.80;;;13.88;;
23714;SDS011;12036;50.858;4.472;2023-11-21T07:02:38;32.85;;;15.63;;
23714;SDS011;12036;50.858;4.472;2023-11-21T07:05:04;44.63;;;15.77;;
23714;SDS011;12036;50.858;4.472;2023-11-21T07:07:30;31.63;;;16.55;;
23714;SDS011;12036;50.858;4.472;2023-11-21T07:09:56;40.03;;;14.55;;
23714;SDS011;12036;50.858;4.472;2023-11-21T07:12:22;37.15;;;15.95;;
23714;SDS011;12036;50.858;4.472;2023-11-21T07:14:48;32.20;;;15.85;;
23714;SDS011;12036;50.858;4.472;2023-11-21T07:17:14;34.72;;;15.50;;
23714;SDS011;12036;50.858;4.472;2023-11-21T07:19:42;28.80;;;14.63;;
23714;SDS011;12036;50.858;4.472;2023-11-21T07:22:08;32.47;;;15.18;;
23714;SDS011;12036;50.858;4.472;2023-11-21T07:24:34;28.38;;;14.88;;
23714;SDS011;12036;50.858;4.472;2023-11-21T07:26:59;28.00;;;15.25;;
23714;SDS011;12036;50.858;4.472;2023-11-21T07:29:25;39.28;;;16.83;;
23714;SDS011;12036;50.858;4.472;2023-11-21T07:31:52;43.08;;;17.60;;
23714;SDS011;12036;50.858;4.472;2023-11-21T07:34:19;41.58;;;18.90;;
23714;SDS011;12036;50.858;4.472;2023-11-21T07:36:45;42.53;;;20.52;;
23714;SDS011;12036;50.858;4.472;2023-11-21T07:39:11;48.25;;;21.38;;
23714;SDS011;12036;50.858;4.472;2023-11-21T07:41:37;39.45;;;18.45;;
23714;SDS011;12036;50.858;4.472;2023-11-21T07:44:09;35.72;;;18.63;;
23714;SDS011;12036;50.858;4.472;2023-11-21T07:46:35;33.35;;;18.50;;
23714;SDS011;12036;50.858;4.472;2023-11-21T07:49:01;35.55;;;17.73;;
23714;SDS011;12036;50.858;4.472;2023-11-21T07:51:26;33.72;;;16.17;;
23714;SDS011;12036;50.858;4.472;2023-11-21T07:53:52;34.03;;;14.95;;
23714;SDS011;12036;50.858;4.472;2023-11-21T07:56:18;31.88;;;15.73;;
23714;SDS011;12036;50.858;4.472;2023-11-21T07:58:43;39.92;;;16.55;;
23714;SDS011;12036;50.858;4.472;2023-11-21T08:01:09;31.30;;;15.77;;
23714;SDS011;12036;50.858;4.472;2023-11-21T08:03:36;37.90;;;16.05;;
23714;SDS011;12036;50.858;4.472;2023-11-21T08:06:02;32.47;;;15.00;;
23714;SDS011;12036;50.858;4.472;2023-11-21T08:08:32;28.27;;;14.38;;
23714;SDS011;12036;50.858;4.472;2023-11-21T08:10:58;36.58;;;16.40;;
23714;SDS011;12036;50.858;4.472;2023-11-21T08:13:27;34.05;;;15.48;;
23714;SDS011;12036;50.858;4.472;2023-11-21T08:15:54;35.28;;;15.07;;
23714;SDS011;12036;50.858;4.472;2023-11-21T08:18:20;34.58;;;15.45;;
23714;SDS011;12036;50.858;4.472;2023-11-21T08:20:46;32.65;;;15.32;;
23714;SDS011;12036;50.858;4.472;2023-11-21T08:23:13;33.72;;;16.60;;
23714;SDS011;12036;50.858;4.472;2023-11-21T08:25:45;38.55;;;16.83;;
23714;SDS011;12036;50.858;4.472;2023-11-21T08:28:11;39.65;;;17.52;;
23714;SDS011;12036;50.858;4.472;2023-11-21T08:30:39;44.00;;;17.73;;
23714;SDS011;12036;50.858;4.472;2023-11-21T08:33:06;44.35;;;17.55;;
23714;SDS011;12036;50.858;4.472;2023-11-21T08:35:33;42.08;;;18.35;;
23714;SDS011;12036;50.858;4.472;2023-11-21T08:37:59;40.00;;;17.45;;
23714;SDS011;12036;50.858;4.472;2023-11-21T08:40:25;42.05;;;17.83;;
23714;SDS011;12036;50.858;4.472;2023-11-21T08:42:50;45.55;;;18.65;;
23714;SDS011;12036;50.858;4.472;2023-11-21T08:45:19;42.22;;;18.65;;
23714;SDS011;12036;50.858;4.472;2023-11-21T08:47:46;52.97;;;19.23;;
23714;SDS011;12036;50.858;4.472;2023-11-21T08:50:12;46.35;;;18.45;;
23714;SDS011;12036;50.858;4.472;2023-11-21T08:52:39;48.05;;;20.60;;
23714;SDS011;12036;50.858;4.472;2023-11-21T08:55:05;54.08;;;19.42;;
23714;SDS011;12036;50.858;4.472;2023-11-21T09:00:09;55.67;;;19.50;;
23714;SDS011;12036;50.858;4.472;2023-11-21T09:02:41;50.75;;;18.75;;
23714;SDS011;12036;50.858;4.472;2023-11-21T09:05:07;50.28;;;18.67;;
23714;SDS011;12036;50.858;4.472;2023-11-21T09:07:34;49.95;;;19.13;;
23714;SDS011;12036;50.858;4.472;2023-11-21T09:10:00;54.40;;;19.60;;
23714;SDS011;12036;50.858;4.472;2023-11-21T09:12:26;53.67;;;19.42;;
23714;SDS011;12036;50.858;4.472;2023-11-21T09:14:52;50.72;;;18.77;;
23714;SDS011;12036;50.858;4.472;2023-11-21T09:17:18;53.10;;;19.05;;
23714;SDS011;12036;50.858;4.472;2023-11-21T09:19:43;59.35;;;18.90;;
23714;SDS011;12036;50.858;4.472;2023-11-21T09:22:12;44.42;;;17.85;;
23714;SDS011;12036;50.858;4.472;2023-11-21T09:24:37;51.63;;;17.50;;
23714;SDS011;12036;50.858;4.472;2023-11-21T09:27:03;47.97;;;17.92;;
23714;SDS011;12036;50.858;4.472;2023-11-21T09:29:30;50.25;;;16.90;;
23714;SDS011;12036;50.858;4.472;2023-11-21T09:31:56;51.60;;;17.13;;
23714;SDS011;12036;50.858;4.472;2023-11-21T09:34:24;54.17;;;16.95;;
23714;SDS011;12036;50.858;4.472;2023-11-21T09:36:51;51.42;;;17.08;;
23714;SDS011;12036;50.858;4.472;2023-11-21T09:39:16;59.97;;;17.75;;
23714;SDS011;12036;50.858;4.472;2023-11-21T09:41:52;51.33;;;17.50;;
23714;SDS011;12036;50.858;4.472;2023-11-21T09:44:35;42.47;;;15.25;;
23714;SDS011;12036;50.858;4.472;2023-11-21T09:47:04;45.20;;;15.18;;
23714;SDS011;12036;50.858;4.472;2023-11-21T09:49:35;46.13;;;15.90;;
23714;SDS011;12036;50.858;4.472;2023-11-21T09:52:02;48.30;;;16.30;;
23714;SDS011;12036;50.858;4.472;2023-11-21T09:54:29;48.45;;;16.45;;
23714;SDS011;12036;50.858;4.472;2023-11-21T09:56:57;55.60;;;17.27;;
23714;SDS011;12036;50.858;4.472;2023-11-21T09:59:24;49.92;;;17.88;;
23714;SDS011;12036;50.858;4.472;2023-11-21T10:01:56;44.70;;;17.27;;
23714;SDS011;12036;50.858;4.472;2023-11-21T10:04:23;41.70;;;15.48;;
23714;SDS011;12036;50.858;4.472;2023-11-21T10:06:49;49.30;;;18.42;;
23714;SDS011;12036;50.858;4.472;2023-11-21T10:09:17;47.35;;;17.15;;
23714;SDS011;12036;50.858;4.472;2023-11-21T10:11:45;44.80;;;16.23;;
23714;SDS011;12036;50.858;4.472;2023-11-21T10:14:14;47.83;;;16.70;;
23714;SDS011;12036;50.858;4.472;2023-11-21T10:16:44;37.03;;;15.43;;
23714;SDS011;12036;50.858;4.472;2023-11-21T10:19:12;31.08;;;14.43;;
23714;SDS011;12036;50.858;4.472;2023-11-21T10:21:42;30.60;;;14.45;;
23714;SDS011;12036;50.858;4.472;2023-11-21T10:24:07;36.00;;;15.38;;
23714;SDS011;12036;50.858;4.472;2023-11-21T10:26:33;33.90;;;14.65;;
23714;SDS011;12036;50.858;4.472;2023-11-21T10:29:01;30.02;;;14.82;;
23714;SDS011;12036;50.858;4.472;2023-11-21T10:31:31;30.45;;;14.88;;
23714;SDS011;12036;50.858;4.472;2023-11-21T10:34:18;29.58;;;14.05;;
23714;SDS011;12036;50.858;4.472;2023-11-21T10:36:44;29.27;;;14.10;;
23714;SDS011;12036;50.858;4.472;2023-11-21T10:39:19;32.35;;;14.35;;
23714;SDS011;12036;50.858;4.472;2023-11-21T10:41:48;28.20;;;13.77;;
23714;SDS011;12036;50.858;4.472;2023-11-21T10:44:16;29.27;;;14.18;;
23714;SDS011;12036;50.858;4.472;2023-11-21T10:46:49;28.98;;;13.00;;
23714;SDS011;12036;50.858;4.472;2023-11-21T10:49:19;27.20;;;13.10;;
23714;SDS011;12036;50.858;4.472;2023-11-21T10:51:45;30.35;;;13.98;;
23714;SDS011;12036;50.858;4.472;2023-11-21T10:54:16;29.38;;;12.75;;
23714;SDS011;12036;50.858;4.472;2023-11-21T10:56:43;26.98;;;14.02;;
23714;SDS011;12036;50.858;4.472;2023-11-21T10:59:10;28.77;;;13.07;;
23714;SDS011;12036;50.858;4.472;2023-11-21T11:01:39;27.77;;;13.15;;
23714;SDS011;12036;50.858;4.472;2023-11-21T11:04:10;27.75;;;13.07;;
23714;SDS011;12036;50.858;4.472;2023-11-21T11:06:44;29.95;;;13.18;;
23714;SDS011;12036;50.858;4.472;2023-11-21T11:09:16;31.35;;;14.07;;
23714;SDS011;12036;50.858;4.472;2023-11-21T11:11:42;31.60;;;14.05;;
23714;SDS011;12036;50.858;4.472;2023-11-21T11:14:11;31.38;;;13.65;;
23714;SDS011;12036;50.858;4.472;2023-11-21T11:16:41;31.40;;;13.80;;
23714;SDS011;12036;50.858;4.472;2023-11-21T11:19:08;30.55;;;14.52;;
23714;SDS011;12036;50.858;4.472;2023-11-21T11:21:40;33.63;;;13.95;;
23714;SDS011;12036;50.858;4.472;2023-11-21T11:27:11;33.88;;;13.95;;
23714;SDS011;12036;50.858;4.472;2023-11-21T11:32:22;29.17;;;13.93;;
23714;SDS011;12036;50.858;4.472;2023-11-21T11:37:28;28.33;;;14.15;;
23714;SDS011;12036;50.858;4.472;2023-11-21T11:39:54;31.83;;;14.43;;
23714;SDS011;12036;50.858;4.472;2023-11-21T11:42:21;29.55;;;13.82;;
23714;SDS011;12036;50.858;4.472;2023-11-21T11:44:49;32.95;;;14.82;;
23714;SDS011;12036;50.858;4.472;2023-11-21T11:52:38;34.92;;;15.82;;
23714;SDS011;12036;50.858;4.472;2023-11-21T11:55:06;27.58;;;14.45;;
23714;SDS011;12036;50.858;4.472;2023-11-21T11:57:37;32.60;;;15.02;;
23714;SDS011;12036;50.858;4.472;2023-11-21T12:00:10;29.27;;;14.52;;
23714;SDS011;12036;50.858;4.472;2023-11-21T12:02:40;30.35;;;13.77;;
23714;SDS011;12036;50.858;4.472;2023-11-21T12:05:10;29.83;;;13.32;;
23714;SDS011;12036;50.858;4.472;2023-11-21T12:10:15;29.70;;;12.82;;
23714;SDS011;12036;50.858;4.472;2023-11-21T12:12:46;27.33;;;13.60;;
23714;SDS011;12036;50.858;4.472;2023-11-21T12:15:13;28.40;;;13.27;;
23714;SDS011;12036;50.858;4.472;2023-11-21T12:17:41;23.48;;;13.73;;
23714;SDS011;12036;50.858;4.472;2023-11-21T12:20:08;25.67;;;13.73;;
23714;SDS011;12036;50.858;4.472;2023-11-21T12:22:44;29.35;;;14.80;;
23714;SDS011;12036;50.858;4.472;2023-11-21T12:25:14;28.33;;;15.20;;
23714;SDS011;12036;50.858;4.472;2023-11-21T12:27:44;23.55;;;12.30;;
23714;SDS011;12036;50.858;4.472;2023-11-21T12:30:11;23.08;;;13.27;;
23714;SDS011;12036;50.858;4.472;2023-11-21T12:32:45;21.75;;;13.07;;
23714;SDS011;12036;50.858;4.472;2023-11-21T12:35:17;22.52;;;12.23;;
23714;SDS011;12036;50.858;4.472;2023-11-21T12:37:44;21.17;;;12.52;;
23714;SDS011;12036;50.858;4.472;2023-11-21T12:40:12;22.70;;;11.88;;
23714;SDS011;12036;50.858;4.472;2023-11-21T12:42:43;22.58;;;11.77;;
23714;SDS011;12036;50.858;4.472;2023-11-21T12:47:46;35.63;;;17.58;;
23714;SDS011;12036;50.858;4.472;2023-11-21T12:50:13;28.30;;;15.10;;
23714;SDS011;12036;50.858;4.472;2023-11-21T12:52:42;17.30;;;9.98;;
23714;SDS011;12036;50.858;4.472;2023-11-21T12:55:13;20.30;;;9.85;;
23714;SDS011;12036;50.858;4.472;2023-11-21T12:57:42;22.70;;;9.95;;
23714;SDS011;12036;50.858;4.472;2023-11-21T13:00:15;19.67;;;12.07;;
23714;SDS011;12036;50.858;4.472;2023-11-21T13:02:55;18.63;;;9.88;;
23714;SDS011;12036;50.858;4.472;2023-11-21T13:05:27;14.40;;;8.68;;
23714;SDS011;12036;50.858;4.472;2023-11-21T13:08:01;19.63;;;9.70;;
23714;SDS011;12036;50.858;4.472;2023-11-21T13:10:29;17.42;;;11.15;;
23714;SDS011;12036;50.858;4.472;2023-11-21T13:12:59;21.17;;;14.07;;
23714;SDS011;12036;50.858;4.472;2023-11-21T13:15:29;13.90;;;8.80;;
23714;SDS011;12036;50.858;4.472;2023-11-21T13:17:56;10.27;;;7.18;;
23714;SDS011;12036;50.858;4.472;2023-11-21T13:20:23;15.63;;;7.65;;
23714;SDS011;12036;50.858;4.472;2023-11-21T13:22:56;9.55;;;6.60;;
23714;SDS011;12036;50.858;4.472;2023-11-21T13:25:24;13.30;;;8.13;;
23714;SDS011;12036;50.858;4.472;2023-11-21T13:27:56;12.02;;;8.00;;
23714;SDS011;12036;50.858;4.472;2023-11-21T13:30:24;12.02;;;6.97;;
23714;SDS011;12036;50.858;4.472;2023-11-21T13:32:58;12.05;;;6.60;;
23714;SDS011;12036;50.858;4.472;2023-11-21T13:35:30;12.60;;;7.70;;
23714;SDS011;12036;50.858;4.472;2023-11-21T13:38:13;10.00;;;7.05;;
23714;SDS011;12036;50.858;4.472;2023-11-21T13:40:47;10.88;;;6.80;;
23714;SDS011;12036;50.858;4.472;2023-11-21T13:43:18;10.50;;;7.00;;
23714;SDS011;12036;50.858;4.472;2023-11-21T13:45:47;10.13;;;7.05;;
23714;SDS011;12036;50.858;4.472;2023-11-21T13:48:20;10.27;;;6.22;;
23714;SDS011;12036;50.858;4.472;2023-11-21T13:50:53;7.85;;;5.78;;
23714;SDS011;12036;50.858;4.472;2023-11-21T13:53:26;14.73;;;5.73;;
23714;SDS011;12036;50.858;4.472;2023-11-21T13:55:55;9.25;;;5.72;;
23714;SDS011;12036;50.858;4.472;2023-11-21T13:58:23;10.77;;;5.10;;
23714;SDS011;12036;50.858;4.472;2023-11-21T14:01:00;8.68;;;5.00;;
23714;SDS011;12036;50.858;4.472;2023-11-21T14:03:30;8.60;;;4.40;;
23714;SDS011;12036;50.858;4.472;2023-11-21T14:06:04;5.90;;;3.85;;
23714;SDS011;12036;50.858;4.472;2023-11-21T14:08:39;8.45;;;4.35;;
23714;SDS011;12036;50.858;4.472;2023-11-21T14:11:06;12.43;;;4.07;;
23714;SDS011;12036;50.858;4.472;2023-11-21T14:13:32;8.98;;;4.85;;
23714;SDS011;12036;50.858;4.472;2023-11-21T14:15:58;5.90;;;3.67;;
23714;SDS011;12036;50.858;4.472;2023-11-21T14:18:26;10.32;;;3.42;;
23714;SDS011;12036;50.858;4.472;2023-11-21T14:21:03;5.15;;;3.05;;
23714;SDS011;12036;50.858;4.472;2023-11-21T14:23:33;5.45;;;3.10;;
23714;SDS011;12036;50.858;4.472;2023-11-21T14:26:01;8.48;;;3.00;;
23714;SDS011;12036;50.858;4.472;2023-11-21T14:28:26;5.85;;;2.72;;
23714;SDS011;12036;50.858;4.472;2023-11-21T14:30:52;5.88;;;2.80;;
23714;SDS011;12036;50.858;4.472;2023-11-21T14:33:18;3.92;;;2.70;;
23714;SDS011;12036;50.858;4.472;2023-11-21T14:35:43;5.88;;;2.78;;
23714;SDS011;12036;50.858;4.472;2023-11-21T14:38:09;4.97;;;3.15;;
23714;SDS011;12036;50.858;4.472;2023-11-21T14:40:35;4.88;;;2.55;;
23714;SDS011;12036;50.858;4.472;2023-11-21T14:43:04;6.57;;;2.83;;
23714;SDS011;12036;50.858;4.472;2023-11-21T14:45:31;6.10;;;3.00;;
23714;SDS011;12036;50.858;4.472;2023-11-21T14:47:57;4.85;;;3.03;;
23714;SDS011;12036;50.858;4.472;2023-11-21T14:50:31;9.70;;;3.38;;